sensor_id;sensor_type;location;lat;lon;timestamp;temperature;humidity
2300;DHT22;1158;48.750;9.078;2023-02-07T00:00:53;-0.80;99.90
2300;DHT22;1158;48.750;9.078;2023-02-07T00:03:20;-0.80;99.90
2300;DHT22;1158;48.750;9.078;2023-02-07T00:05:47;-0.80;99.90
2300;DHT22;1158;48.750;9.078;2023-02-07T00:08:15;-0.80;99.90
2300;DHT22;1158;48.750;9.078;2023-02-07T00:10:41;-0.90;99.90
2300;DHT22;1158;48.750;9.078;2023-02-07T00:13:08;-0.90;99.90
2300;DHT22;1158;48.750;9.078;2023-02-07T00:15:35;-1.00;99.90
2300;DHT22;1158;48.750;9.078;2023-02-07T00:18:02;-1.10;99.90
2300;DHT22;1158;48.750;9.078;2023-02-07T00:20:29;-1.20;99.90
2300;DHT22;1158;48.750;9.078;2023-02-07T00:22:55;-1.30;99.90
2300;DHT22;1158;48.750;9.078;2023-02-07T00:25:23;-1.50;99.90
2300;DHT22;1158;48.750;9.078;2023-02-07T00:27:50;-1.60;99.90
2300;DHT22;1158;48.750;9.078;2023-02-07T00:30:17;-1.70;99.90
2300;DHT22;1158;48.750;9.078;2023-02-07T00:32:44;-1.80;99.90
2300;DHT22;1158;48.750;9.078;2023-02-07T00:35:11;-1.80;99.90
2300;DHT22;1158;48.750;9.078;2023-02-07T00:37:37;-1.90;99.90
2300;DHT22;1158;48.750;9.078;2023-02-07T00:40:05;-2.00;99.90
2300;DHT22;1158;48.750;9.078;2023-02-07T00:42:33;-2.00;99.90
2300;DHT22;1158;48.750;9.078;2023-02-07T00:45:00;-2.10;99.90
2300;DHT22;1158;48.750;9.078;2023-02-07T00:47:27;-2.10;99.90
2300;DHT22;1158;48.750;9.078;2023-02-07T00:49:53;-2.10;99.90
2300;DHT22;1158;48.750;9.078;2023-02-07T00:52:20;-2.20;99.90
2300;DHT22;1158;48.750;9.078;2023-02-07T00:54:47;-2.30;99.90
2300;DHT22;1158;48.750;9.078;2023-02-07T00:57:13;-2.30;99.90
2300;DHT22;1158;48.750;9.078;2023-02-07T00:59:41;-2.20;99.90
2300;DHT22;1158;48.750;9.078;2023-02-07T01:02:08;-2.20;99.90
2300;DHT22;1158;48.750;9.078;2023-02-07T01:04:35;-2.20;99.90
2300;DHT22;1158;48.750;9.078;2023-02-07T01:07:02;-2.20;99.90
2300;DHT22;1158;48.750;9.078;2023-02-07T01:09:28;-2.20;99.90
2300;DHT22;1158;48.750;9.078;2023-02-07T01:11:55;-2.20;99.90
2300;DHT22;1158;48.750;9.078;2023-02-07T01:14:22;-2.30;99.90
2300;DHT22;1158;48.750;9.078;2023-02-07T01:16:50;-2.30;99.90
2300;DHT22;1158;48.750;9.078;2023-02-07T01:19:17;-2.40;99.90
2300;DHT22;1158;48.750;9.078;2023-02-07T01:21:44;-2.40;99.90
2300;DHT22;1158;48.750;9.078;2023-02-07T01:24:11;-2.50;99.90
2300;DHT22;1158;48.750;9.078;2023-02-07T01:26:38;-2.60;99.90
2300;DHT22;1158;48.750;9.078;2023-02-07T01:29:05;-2.60;99.90
2300;DHT22;1158;48.750;9.078;2023-02-07T01:31:32;-2.60;99.90
2300;DHT22;1158;48.750;9.078;2023-02-07T01:34:01;-2.70;99.90
2300;DHT22;1158;48.750;9.078;2023-02-07T01:36:28;-2.70;99.90
2300;DHT22;1158;48.750;9.078;2023-02-07T01:38:55;-2.70;99.90
2300;DHT22;1158;48.750;9.078;2023-02-07T01:41:24;-2.80;99.90
2300;DHT22;1158;48.750;9.078;2023-02-07T01:43:56;-2.80;99.90
2300;DHT22;1158;48.750;9.078;2023-02-07T01:46:24;-2.80;99.90
2300;DHT22;1158;48.750;9.078;2023-02-07T01:48:51;-2.70;99.90
2300;DHT22;1158;48.750;9.078;2023-02-07T01:51:22;-2.70;99.90
2300;DHT22;1158;48.750;9.078;2023-02-07T01:53:50;-2.60;99.90
2300;DHT22;1158;48.750;9.078;2023-02-07T01:56:19;-2.60;99.90
2300;DHT22;1158;48.750;9.078;2023-02-07T01:58:46;-2.50;99.90
2300;DHT22;1158;48.750;9.078;2023-02-07T02:01:18;-2.50;99.90
2300;DHT22;1158;48.750;9.078;2023-02-07T02:03:47;-2.50;99.90
2300;DHT22;1158;48.750;9.078;2023-02-07T02:06:16;-2.50;99.90
2300;DHT22;1158;48.750;9.078;2023-02-07T02:08:44;-2.50;99.90
2300;DHT22;1158;48.750;9.078;2023-02-07T02:11:40;-2.50;99.90
2300;DHT22;1158;48.750;9.078;2023-02-07T02:14:15;-2.60;99.90
2300;DHT22;1158;48.750;9.078;2023-02-07T02:16:51;-2.60;99.90
2300;DHT22;1158;48.750;9.078;2023-02-07T02:19:51;-2.80;99.90
2300;DHT22;1158;48.750;9.078;2023-02-07T02:31:58;-3.00;99.90
2300;DHT22;1158;48.750;9.078;2023-02-07T02:34:36;-3.00;99.90
2300;DHT22;1158;48.750;9.078;2023-02-07T02:37:11;-3.00;99.90
2300;DHT22;1158;48.750;9.078;2023-02-07T02:39:41;-3.10;99.90
2300;DHT22;1158;48.750;9.078;2023-02-07T02:42:15;-3.20;99.90
2300;DHT22;1158;48.750;9.078;2023-02-07T02:44:47;-3.20;99.90
2300;DHT22;1158;48.750;9.078;2023-02-07T02:47:16;-3.30;99.90
2300;DHT22;1158;48.750;9.078;2023-02-07T02:49:46;-3.30;99.90
2300;DHT22;1158;48.750;9.078;2023-02-07T02:52:13;-3.30;99.90
2300;DHT22;1158;48.750;9.078;2023-02-07T02:54:41;-3.30;99.90
2300;DHT22;1158;48.750;9.078;2023-02-07T02:57:36;-3.30;99.90
2300;DHT22;1158;48.750;9.078;2023-02-07T03:00:36;-3.30;99.90
2300;DHT22;1158;48.750;9.078;2023-02-07T03:03:20;-3.30;99.90
2300;DHT22;1158;48.750;9.078;2023-02-07T03:05:55;-3.30;99.90
2300;DHT22;1158;48.750;9.078;2023-02-07T03:08:30;-3.30;99.90
2300;DHT22;1158;48.750;9.078;2023-02-07T03:11:06;-3.30;99.90
2300;DHT22;1158;48.750;9.078;2023-02-07T03:13:40;-3.40;99.90
2300;DHT22;1158;48.750;9.078;2023-02-07T03:16:12;-3.40;99.90
2300;DHT22;1158;48.750;9.078;2023-02-07T03:18:46;-3.40;99.90
2300;DHT22;1158;48.750;9.078;2023-02-07T03:21:20;-3.50;99.90
2300;DHT22;1158;48.750;9.078;2023-02-07T03:23:50;-3.40;99.90
2300;DHT22;1158;48.750;9.078;2023-02-07T03:26:19;-3.40;99.90
2300;DHT22;1158;48.750;9.078;2023-02-07T03:28:49;-3.50;99.90
2300;DHT22;1158;48.750;9.078;2023-02-07T03:31:19;-3.50;99.90
2300;DHT22;1158;48.750;9.078;2023-02-07T03:33:48;-3.60;99.90
2300;DHT22;1158;48.750;9.078;2023-02-07T03:36:20;-3.60;99.90
2300;DHT22;1158;48.750;9.078;2023-02-07T03:38:47;-3.60;99.90
2300;DHT22;1158;48.750;9.078;2023-02-07T03:41:17;-3.60;99.90
2300;DHT22;1158;48.750;9.078;2023-02-07T03:43:46;-3.60;99.90
2300;DHT22;1158;48.750;9.078;2023-02-07T03:46:14;-3.60;99.90
2300;DHT22;1158;48.750;9.078;2023-02-07T03:48:41;-3.60;99.90
2300;DHT22;1158;48.750;9.078;2023-02-07T03:51:08;-3.70;99.90
2300;DHT22;1158;48.750;9.078;2023-02-07T03:53:36;-3.80;99.90
2300;DHT22;1158;48.750;9.078;2023-02-07T03:56:03;-3.80;99.90
2300;DHT22;1158;48.750;9.078;2023-02-07T03:58:30;-3.80;99.90
2300;DHT22;1158;48.750;9.078;2023-02-07T04:00:56;-3.80;99.90
2300;DHT22;1158;48.750;9.078;2023-02-07T04:03:23;-3.80;99.90
2300;DHT22;1158;48.750;9.078;2023-02-07T04:05:50;-3.70;99.90
2300;DHT22;1158;48.750;9.078;2023-02-07T04:08:17;-3.80;99.90
2300;DHT22;1158;48.750;9.078;2023-02-07T04:10:56;-3.90;99.90
2300;DHT22;1158;48.750;9.078;2023-02-07T04:13:22;-3.90;99.90
2300;DHT22;1158;48.750;9.078;2023-02-07T04:15:49;-3.90;99.90
2300;DHT22;1158;48.750;9.078;2023-02-07T04:18:16;-3.90;99.90
2300;DHT22;1158;48.750;9.078;2023-02-07T04:20:42;-3.90;99.90
2300;DHT22;1158;48.750;9.078;2023-02-07T04:23:09;-3.90;99.90
2300;DHT22;1158;48.750;9.078;2023-02-07T04:25:36;-3.90;99.90
2300;DHT22;1158;48.750;9.078;2023-02-07T04:28:04;-3.90;99.90
2300;DHT22;1158;48.750;9.078;2023-02-07T04:30:31;-3.90;99.90
2300;DHT22;1158;48.750;9.078;2023-02-07T04:32:58;-4.00;99.90
2300;DHT22;1158;48.750;9.078;2023-02-07T04:35:25;-4.00;99.90
2300;DHT22;1158;48.750;9.078;2023-02-07T04:37:52;-4.00;99.90
2300;DHT22;1158;48.750;9.078;2023-02-07T04:40:19;-4.00;99.90
2300;DHT22;1158;48.750;9.078;2023-02-07T04:42:45;-4.00;99.90
2300;DHT22;1158;48.750;9.078;2023-02-07T04:45:13;-4.10;99.90
2300;DHT22;1158;48.750;9.078;2023-02-07T04:47:40;-4.10;99.90
2300;DHT22;1158;48.750;9.078;2023-02-07T04:50:07;-4.20;99.90
2300;DHT22;1158;48.750;9.078;2023-02-07T04:52:34;-4.20;99.90
2300;DHT22;1158;48.750;9.078;2023-02-07T04:55:02;-4.10;99.90
2300;DHT22;1158;48.750;9.078;2023-02-07T04:57:28;-4.10;99.90
2300;DHT22;1158;48.750;9.078;2023-02-07T04:59:55;-4.00;99.90
2300;DHT22;1158;48.750;9.078;2023-02-07T05:02:23;-4.10;99.90
2300;DHT22;1158;48.750;9.078;2023-02-07T05:04:50;-4.10;99.90
2300;DHT22;1158;48.750;9.078;2023-02-07T05:07:16;-3.90;99.90
2300;DHT22;1158;48.750;9.078;2023-02-07T05:09:43;-3.90;99.90
2300;DHT22;1158;48.750;9.078;2023-02-07T05:12:10;-3.90;99.90
2300;DHT22;1158;48.750;9.078;2023-02-07T05:14:37;-3.90;99.90
2300;DHT22;1158;48.750;9.078;2023-02-07T05:17:04;-4.00;99.90
2300;DHT22;1158;48.750;9.078;2023-02-07T05:19:32;-4.00;99.90
2300;DHT22;1158;48.750;9.078;2023-02-07T05:21:58;-4.10;99.90
2300;DHT22;1158;48.750;9.078;2023-02-07T05:24:25;-4.10;99.90
2300;DHT22;1158;48.750;9.078;2023-02-07T05:26:52;-4.20;99.90
2300;DHT22;1158;48.750;9.078;2023-02-07T05:29:19;-4.30;99.90
2300;DHT22;1158;48.750;9.078;2023-02-07T05:31:45;-4.30;99.90
2300;DHT22;1158;48.750;9.078;2023-02-07T05:34:31;-4.30;99.90
2300;DHT22;1158;48.750;9.078;2023-02-07T05:36:58;-4.30;99.90
2300;DHT22;1158;48.750;9.078;2023-02-07T05:39:25;-4.40;99.90
2300;DHT22;1158;48.750;9.078;2023-02-07T05:41:51;-4.40;99.90
2300;DHT22;1158;48.750;9.078;2023-02-07T05:44:18;-4.60;99.90
2300;DHT22;1158;48.750;9.078;2023-02-07T05:46:45;-4.60;99.90
2300;DHT22;1158;48.750;9.078;2023-02-07T05:49:12;-4.60;99.90
2300;DHT22;1158;48.750;9.078;2023-02-07T05:51:40;-4.70;99.90
2300;DHT22;1158;48.750;9.078;2023-02-07T05:54:07;-4.70;99.90
2300;DHT22;1158;48.750;9.078;2023-02-07T05:56:33;-4.70;99.90
2300;DHT22;1158;48.750;9.078;2023-02-07T05:59:00;-4.70;99.90
2300;DHT22;1158;48.750;9.078;2023-02-07T06:01:27;-4.70;99.90
2300;DHT22;1158;48.750;9.078;2023-02-07T06:03:54;-4.60;99.90
2300;DHT22;1158;48.750;9.078;2023-02-07T06:06:20;-4.60;99.90
2300;DHT22;1158;48.750;9.078;2023-02-07T06:08:48;-4.60;99.90
2300;DHT22;1158;48.750;9.078;2023-02-07T06:11:15;-4.60;99.90
2300;DHT22;1158;48.750;9.078;2023-02-07T06:13:42;-4.60;99.90
2300;DHT22;1158;48.750;9.078;2023-02-07T06:16:09;-4.70;99.90
2300;DHT22;1158;48.750;9.078;2023-02-07T06:18:36;-4.70;99.90
2300;DHT22;1158;48.750;9.078;2023-02-07T06:21:04;-4.80;99.90
2300;DHT22;1158;48.750;9.078;2023-02-07T06:23:31;-4.90;99.90
2300;DHT22;1158;48.750;9.078;2023-02-07T06:25:59;-5.00;99.90
2300;DHT22;1158;48.750;9.078;2023-02-07T06:28:25;-4.90;99.90
2300;DHT22;1158;48.750;9.078;2023-02-07T06:30:52;-4.90;99.90
2300;DHT22;1158;48.750;9.078;2023-02-07T06:33:19;-4.80;99.90
2300;DHT22;1158;48.750;9.078;2023-02-07T06:35:46;-4.90;99.90
2300;DHT22;1158;48.750;9.078;2023-02-07T06:38:13;-4.90;99.90
2300;DHT22;1158;48.750;9.078;2023-02-07T06:40:40;-5.00;99.90
2300;DHT22;1158;48.750;9.078;2023-02-07T06:43:09;-5.10;99.90
2300;DHT22;1158;48.750;9.078;2023-02-07T06:45:36;-5.10;99.90
2300;DHT22;1158;48.750;9.078;2023-02-07T06:48:03;-5.20;99.90
2300;DHT22;1158;48.750;9.078;2023-02-07T06:50:30;-5.30;99.90
2300;DHT22;1158;48.750;9.078;2023-02-07T06:52:57;-5.40;99.90
2300;DHT22;1158;48.750;9.078;2023-02-07T06:55:26;-5.40;99.90
2300;DHT22;1158;48.750;9.078;2023-02-07T06:57:53;-5.40;99.90
2300;DHT22;1158;48.750;9.078;2023-02-07T07:00:21;-5.50;99.90
2300;DHT22;1158;48.750;9.078;2023-02-07T07:02:48;-5.60;99.90
2300;DHT22;1158;48.750;9.078;2023-02-07T07:05:15;-5.60;99.90
2300;DHT22;1158;48.750;9.078;2023-02-07T07:07:42;-5.70;99.90
2300;DHT22;1158;48.750;9.078;2023-02-07T07:10:09;-5.70;99.90
2300;DHT22;1158;48.750;9.078;2023-02-07T07:12:37;-5.60;99.90
2300;DHT22;1158;48.750;9.078;2023-02-07T07:15:04;-5.50;99.90
2300;DHT22;1158;48.750;9.078;2023-02-07T07:17:32;-5.30;99.90
2300;DHT22;1158;48.750;9.078;2023-02-07T07:19:59;-5.00;99.90
2300;DHT22;1158;48.750;9.078;2023-02-07T07:22:26;-4.00;99.90
2300;DHT22;1158;48.750;9.078;2023-02-07T07:24:52;-2.60;99.90
2300;DHT22;1158;48.750;9.078;2023-02-07T07:27:19;-1.40;99.90
2300;DHT22;1158;48.750;9.078;2023-02-07T07:29:46;-0.40;99.90
2300;DHT22;1158;48.750;9.078;2023-02-07T07:32:13;0.40;99.90
2300;DHT22;1158;48.750;9.078;2023-02-07T07:34:41;1.40;99.90
2300;DHT22;1158;48.750;9.078;2023-02-07T07:37:10;2.30;99.90
2300;DHT22;1158;48.750;9.078;2023-02-07T07:39:38;1.90;99.90
2300;DHT22;1158;48.750;9.078;2023-02-07T07:42:04;1.80;99.90
2300;DHT22;1158;48.750;9.078;2023-02-07T07:44:31;2.10;99.90
2300;DHT22;1158;48.750;9.078;2023-02-07T07:46:58;1.80;99.90
2300;DHT22;1158;48.750;9.078;2023-02-07T07:49:25;2.70;99.90
2300;DHT22;1158;48.750;9.078;2023-02-07T07:51:53;2.60;99.90
2300;DHT22;1158;48.750;9.078;2023-02-07T07:54:20;3.40;99.90
2300;DHT22;1158;48.750;9.078;2023-02-07T07:56:46;4.40;99.70
2300;DHT22;1158;48.750;9.078;2023-02-07T07:59:13;4.80;98.10
2300;DHT22;1158;48.750;9.078;2023-02-07T08:01:41;5.50;96.60
2300;DHT22;1158;48.750;9.078;2023-02-07T08:04:07;5.60;95.80
2300;DHT22;1158;48.750;9.078;2023-02-07T08:06:34;5.60;95.30
2300;DHT22;1158;48.750;9.078;2023-02-07T08:09:02;5.10;94.80
2300;DHT22;1158;48.750;9.078;2023-02-07T08:11:29;4.90;95.00
2300;DHT22;1158;48.750;9.078;2023-02-07T08:13:56;5.10;95.70
2300;DHT22;1158;48.750;9.078;2023-02-07T08:16:23;5.70;95.50
2300;DHT22;1158;48.750;9.078;2023-02-07T08:18:50;6.10;94.70
2300;DHT22;1158;48.750;9.078;2023-02-07T08:21:17;6.80;93.80
2300;DHT22;1158;48.750;9.078;2023-02-07T08:23:44;7.00;93.50
2300;DHT22;1158;48.750;9.078;2023-02-07T08:26:12;7.30;92.60
2300;DHT22;1158;48.750;9.078;2023-02-07T08:28:39;7.40;92.30
2300;DHT22;1158;48.750;9.078;2023-02-07T08:31:06;6.20;92.40
2300;DHT22;1158;48.750;9.078;2023-02-07T08:33:32;5.90;93.70
2300;DHT22;1158;48.750;9.078;2023-02-07T08:35:59;6.10;93.50
2300;DHT22;1158;48.750;9.078;2023-02-07T08:38:26;6.90;92.60
2300;DHT22;1158;48.750;9.078;2023-02-07T08:40:53;7.40;92.00
2300;DHT22;1158;48.750;9.078;2023-02-07T08:43:21;8.00;90.80
2300;DHT22;1158;48.750;9.078;2023-02-07T08:45:48;8.40;90.50
2300;DHT22;1158;48.750;9.078;2023-02-07T08:48:15;8.10;90.40
2300;DHT22;1158;48.750;9.078;2023-02-07T08:50:41;8.10;90.80
2300;DHT22;1158;48.750;9.078;2023-02-07T08:53:08;8.40;90.20
2300;DHT22;1158;48.750;9.078;2023-02-07T08:55:35;8.50;89.30
2300;DHT22;1158;48.750;9.078;2023-02-07T08:58:02;8.80;89.00
2300;DHT22;1158;48.750;9.078;2023-02-07T09:00:30;8.40;87.00
2300;DHT22;1158;48.750;9.078;2023-02-07T09:02:59;8.00;90.00
2300;DHT22;1158;48.750;9.078;2023-02-07T09:05:27;8.30;89.50
2300;DHT22;1158;48.750;9.078;2023-02-07T09:07:57;7.50;88.20
2300;DHT22;1158;48.750;9.078;2023-02-07T09:10:24;8.10;88.40
2300;DHT22;1158;48.750;9.078;2023-02-07T09:12:50;7.30;90.40
2300;DHT22;1158;48.750;9.078;2023-02-07T09:15:17;7.80;89.10
2300;DHT22;1158;48.750;9.078;2023-02-07T09:17:45;7.70;89.20
2300;DHT22;1158;48.750;9.078;2023-02-07T09:20:12;8.00;89.30
2300;DHT22;1158;48.750;9.078;2023-02-07T09:22:39;8.40;88.00
2300;DHT22;1158;48.750;9.078;2023-02-07T09:25:20;8.70;87.60
2300;DHT22;1158;48.750;9.078;2023-02-07T09:27:46;8.50;87.60
2300;DHT22;1158;48.750;9.078;2023-02-07T09:30:13;8.60;87.50
2300;DHT22;1158;48.750;9.078;2023-02-07T09:32:40;8.20;87.60
2300;DHT22;1158;48.750;9.078;2023-02-07T09:35:08;7.70;87.80
2300;DHT22;1158;48.750;9.078;2023-02-07T09:37:35;7.30;88.30
2300;DHT22;1158;48.750;9.078;2023-02-07T09:40:02;7.70;89.30
2300;DHT22;1158;48.750;9.078;2023-02-07T09:42:33;8.20;87.80
2300;DHT22;1158;48.750;9.078;2023-02-07T09:45:08;7.80;88.90
2300;DHT22;1158;48.750;9.078;2023-02-07T09:47:37;7.70;89.10
2300;DHT22;1158;48.750;9.078;2023-02-07T09:50:12;8.50;87.10
2300;DHT22;1158;48.750;9.078;2023-02-07T09:52:46;8.60;86.50
2300;DHT22;1158;48.750;9.078;2023-02-07T09:55:17;8.10;87.10
2300;DHT22;1158;48.750;9.078;2023-02-07T09:57:49;7.90;87.70
2300;DHT22;1158;48.750;9.078;2023-02-07T10:00:19;8.00;86.70
2300;DHT22;1158;48.750;9.078;2023-02-07T10:02:51;8.30;87.50
2300;DHT22;1158;48.750;9.078;2023-02-07T10:05:26;7.50;87.30
2300;DHT22;1158;48.750;9.078;2023-02-07T10:07:54;7.60;88.90
2300;DHT22;1158;48.750;9.078;2023-02-07T10:10:25;7.80;86.60
2300;DHT22;1158;48.750;9.078;2023-02-07T10:13:05;7.40;87.00
2300;DHT22;1158;48.750;9.078;2023-02-07T10:15:46;7.00;89.50
2300;DHT22;1158;48.750;9.078;2023-02-07T10:18:27;8.10;88.80
2300;DHT22;1158;48.750;9.078;2023-02-07T10:21:02;7.80;86.40
2300;DHT22;1158;48.750;9.078;2023-02-07T10:23:41;7.60;86.10
2300;DHT22;1158;48.750;9.078;2023-02-07T10:26:20;7.90;86.60
2300;DHT22;1158;48.750;9.078;2023-02-07T10:29:20;7.50;88.00
2300;DHT22;1158;48.750;9.078;2023-02-07T10:31:51;7.10;87.60
2300;DHT22;1158;48.750;9.078;2023-02-07T10:34:22;7.20;90.10
2300;DHT22;1158;48.750;9.078;2023-02-07T10:36:52;7.40;87.70
2300;DHT22;1158;48.750;9.078;2023-02-07T10:39:24;7.00;87.60
2300;DHT22;1158;48.750;9.078;2023-02-07T10:41:52;6.00;89.00
2300;DHT22;1158;48.750;9.078;2023-02-07T10:44:22;6.00;90.30
2300;DHT22;1158;48.750;9.078;2023-02-07T10:46:54;6.10;89.50
2300;DHT22;1158;48.750;9.078;2023-02-07T10:49:22;6.30;89.90
2300;DHT22;1158;48.750;9.078;2023-02-07T10:51:53;6.20;90.10
2300;DHT22;1158;48.750;9.078;2023-02-07T10:54:21;6.10;89.90
2300;DHT22;1158;48.750;9.078;2023-02-07T10:56:50;6.30;89.40
2300;DHT22;1158;48.750;9.078;2023-02-07T10:59:38;5.80;90.20
2300;DHT22;1158;48.750;9.078;2023-02-07T11:02:48;6.10;90.00
2300;DHT22;1158;48.750;9.078;2023-02-07T11:05:32;6.30;90.10
2300;DHT22;1158;48.750;9.078;2023-02-07T11:08:02;7.00;89.60
2300;DHT22;1158;48.750;9.078;2023-02-07T11:10:34;7.50;89.80
2300;DHT22;1158;48.750;9.078;2023-02-07T11:13:02;7.60;86.90
2300;DHT22;1158;48.750;9.078;2023-02-07T11:15:36;7.50;86.70
2300;DHT22;1158;48.750;9.078;2023-02-07T11:18:04;7.40;89.40
2300;DHT22;1158;48.750;9.078;2023-02-07T11:20:34;7.60;87.40
2300;DHT22;1158;48.750;9.078;2023-02-07T11:23:07;7.90;85.80
2300;DHT22;1158;48.750;9.078;2023-02-07T11:25:40;7.80;87.10
2300;DHT22;1158;48.750;9.078;2023-02-07T11:28:16;8.10;85.60
2300;DHT22;1158;48.750;9.078;2023-02-07T11:30:44;7.10;86.00
2300;DHT22;1158;48.750;9.078;2023-02-07T11:33:16;7.10;86.30
2300;DHT22;1158;48.750;9.078;2023-02-07T11:36:01;6.70;85.30
2300;DHT22;1158;48.750;9.078;2023-02-07T11:38:31;6.70;87.80
2300;DHT22;1158;48.750;9.078;2023-02-07T11:41:01;7.20;87.60
2300;DHT22;1158;48.750;9.078;2023-02-07T11:43:32;7.70;83.40
2300;DHT22;1158;48.750;9.078;2023-02-07T11:46:01;7.30;86.90
2300;DHT22;1158;48.750;9.078;2023-02-07T11:48:33;6.70;86.90
2300;DHT22;1158;48.750;9.078;2023-02-07T11:51:02;6.60;89.30
2300;DHT22;1158;48.750;9.078;2023-02-07T11:53:35;6.90;88.90
2300;DHT22;1158;48.750;9.078;2023-02-07T11:56:04;6.80;86.20
2300;DHT22;1158;48.750;9.078;2023-02-07T11:58:33;6.30;87.60
2300;DHT22;1158;48.750;9.078;2023-02-07T12:01:03;6.60;86.30
2300;DHT22;1158;48.750;9.078;2023-02-07T12:03:32;7.00;88.80
2300;DHT22;1158;48.750;9.078;2023-02-07T12:06:01;7.10;86.80
2300;DHT22;1158;48.750;9.078;2023-02-07T12:08:32;7.30;88.30
2300;DHT22;1158;48.750;9.078;2023-02-07T12:11:04;7.20;87.30
2300;DHT22;1158;48.750;9.078;2023-02-07T12:13:39;6.90;87.80
2300;DHT22;1158;48.750;9.078;2023-02-07T12:16:10;7.20;89.20
2300;DHT22;1158;48.750;9.078;2023-02-07T12:18:40;7.50;87.70
2300;DHT22;1158;48.750;9.078;2023-02-07T12:21:16;7.40;88.30
2300;DHT22;1158;48.750;9.078;2023-02-07T12:23:48;7.50;87.50
2300;DHT22;1158;48.750;9.078;2023-02-07T12:26:21;7.80;88.10
2300;DHT22;1158;48.750;9.078;2023-02-07T12:28:54;8.00;85.50
2300;DHT22;1158;48.750;9.078;2023-02-07T12:31:38;7.80;86.70
2300;DHT22;1158;48.750;9.078;2023-02-07T12:34:11;7.20;86.30
2300;DHT22;1158;48.750;9.078;2023-02-07T12:36:45;7.70;86.70
2300;DHT22;1158;48.750;9.078;2023-02-07T12:39:19;7.90;86.50
2300;DHT22;1158;48.750;9.078;2023-02-07T12:41:52;7.90;85.00
2300;DHT22;1158;48.750;9.078;2023-02-07T12:44:23;7.80;86.00
2300;DHT22;1158;48.750;9.078;2023-02-07T12:46:59;7.80;85.90
2300;DHT22;1158;48.750;9.078;2023-02-07T12:49:50;7.50;86.60
2300;DHT22;1158;48.750;9.078;2023-02-07T12:52:32;6.90;87.50
2300;DHT22;1158;48.750;9.078;2023-02-07T12:55:11;7.60;86.80
2300;DHT22;1158;48.750;9.078;2023-02-07T12:57:44;7.50;85.70
2300;DHT22;1158;48.750;9.078;2023-02-07T13:00:15;7.80;86.40
2300;DHT22;1158;48.750;9.078;2023-02-07T13:02:56;7.90;84.70
2300;DHT22;1158;48.750;9.078;2023-02-07T13:05:45;7.60;85.10
2300;DHT22;1158;48.750;9.078;2023-02-07T13:08:24;8.10;84.70
2300;DHT22;1158;48.750;9.078;2023-02-07T13:11:03;8.10;84.50
2300;DHT22;1158;48.750;9.078;2023-02-07T13:13:41;8.60;90.40
2300;DHT22;1158;48.750;9.078;2023-02-07T13:16:18;8.80;89.50
2300;DHT22;1158;48.750;9.078;2023-02-07T13:18:51;8.80;83.40
2300;DHT22;1158;48.750;9.078;2023-02-07T13:21:23;8.90;81.20
2300;DHT22;1158;48.750;9.078;2023-02-07T13:23:55;8.10;81.80
2300;DHT22;1158;48.750;9.078;2023-02-07T13:26:25;7.60;83.70
2300;DHT22;1158;48.750;9.078;2023-02-07T13:28:54;7.70;82.60
2300;DHT22;1158;48.750;9.078;2023-02-07T13:31:34;7.70;83.40
2300;DHT22;1158;48.750;9.078;2023-02-07T13:34:01;7.50;83.50
2300;DHT22;1158;48.750;9.078;2023-02-07T13:36:34;7.70;83.80
2300;DHT22;1158;48.750;9.078;2023-02-07T13:39:08;8.40;83.10
2300;DHT22;1158;48.750;9.078;2023-02-07T13:41:48;8.30;81.90
2300;DHT22;1158;48.750;9.078;2023-02-07T13:44:21;8.60;82.50
2300;DHT22;1158;48.750;9.078;2023-02-07T13:47:29;9.30;79.30
2300;DHT22;1158;48.750;9.078;2023-02-07T13:50:02;8.70;77.10
2300;DHT22;1158;48.750;9.078;2023-02-07T13:52:33;8.80;76.90
2300;DHT22;1158;48.750;9.078;2023-02-07T13:55:09;8.70;76.00
2300;DHT22;1158;48.750;9.078;2023-02-07T13:57:43;9.00;74.80
2300;DHT22;1158;48.750;9.078;2023-02-07T14:00:28;9.20;76.10
2300;DHT22;1158;48.750;9.078;2023-02-07T14:02:58;9.30;75.90
2300;DHT22;1158;48.750;9.078;2023-02-07T14:05:27;9.50;76.30
2300;DHT22;1158;48.750;9.078;2023-02-07T14:08:00;9.20;76.10
2300;DHT22;1158;48.750;9.078;2023-02-07T14:10:38;9.80;75.20
2300;DHT22;1158;48.750;9.078;2023-02-07T14:13:28;10.10;73.10
2300;DHT22;1158;48.750;9.078;2023-02-07T14:16:02;10.10;73.20
2300;DHT22;1158;48.750;9.078;2023-02-07T14:18:41;9.80;74.80
2300;DHT22;1158;48.750;9.078;2023-02-07T14:21:28;9.90;74.30
2300;DHT22;1158;48.750;9.078;2023-02-07T14:27:20;10.40;71.40
2300;DHT22;1158;48.750;9.078;2023-02-07T14:30:20;10.00;70.60
2300;DHT22;1158;48.750;9.078;2023-02-07T14:33:12;10.70;73.20
2300;DHT22;1158;48.750;9.078;2023-02-07T14:36:01;11.40;71.80
2300;DHT22;1158;48.750;9.078;2023-02-07T14:38:31;11.70;68.80
2300;DHT22;1158;48.750;9.078;2023-02-07T14:41:05;11.90;67.80
2300;DHT22;1158;48.750;9.078;2023-02-07T14:43:42;11.50;68.10
2300;DHT22;1158;48.750;9.078;2023-02-07T14:46:13;11.80;67.80
2300;DHT22;1158;48.750;9.078;2023-02-07T14:48:50;10.70;69.70
2300;DHT22;1158;48.750;9.078;2023-02-07T14:51:22;10.60;71.10
2300;DHT22;1158;48.750;9.078;2023-02-07T14:53:58;10.90;71.30
2300;DHT22;1158;48.750;9.078;2023-02-07T14:56:39;11.70;70.20
2300;DHT22;1158;48.750;9.078;2023-02-07T14:59:12;12.50;69.40
2300;DHT22;1158;48.750;9.078;2023-02-07T15:01:41;12.70;65.60
2300;DHT22;1158;48.750;9.078;2023-02-07T15:04:09;12.80;62.00
2300;DHT22;1158;48.750;9.078;2023-02-07T15:06:39;12.50;63.60
2300;DHT22;1158;48.750;9.078;2023-02-07T15:09:13;12.30;65.80
2300;DHT22;1158;48.750;9.078;2023-02-07T15:11:42;12.60;66.60
2300;DHT22;1158;48.750;9.078;2023-02-07T15:14:19;13.50;66.10
2300;DHT22;1158;48.750;9.078;2023-02-07T15:16:48;13.80;64.70
2300;DHT22;1158;48.750;9.078;2023-02-07T15:19:19;13.30;65.20
2300;DHT22;1158;48.750;9.078;2023-02-07T15:21:47;12.50;65.50
2300;DHT22;1158;48.750;9.078;2023-02-07T15:24:17;11.90;66.70
2300;DHT22;1158;48.750;9.078;2023-02-07T15:26:48;10.30;66.00
2300;DHT22;1158;48.750;9.078;2023-02-07T15:29:21;10.00;66.20
2300;DHT22;1158;48.750;9.078;2023-02-07T15:31:49;9.60;69.40
2300;DHT22;1158;48.750;9.078;2023-02-07T15:34:18;9.30;69.50
2300;DHT22;1158;48.750;9.078;2023-02-07T15:36:46;9.00;70.50
2300;DHT22;1158;48.750;9.078;2023-02-07T15:39:15;8.10;70.30
2300;DHT22;1158;48.750;9.078;2023-02-07T15:41:43;7.90;70.80
2300;DHT22;1158;48.750;9.078;2023-02-07T15:44:18;7.10;71.00
2300;DHT22;1158;48.750;9.078;2023-02-07T15:46:49;6.50;73.00
2300;DHT22;1158;48.750;9.078;2023-02-07T15:49:27;6.50;74.80
2300;DHT22;1158;48.750;9.078;2023-02-07T15:52:03;6.00;75.20
2300;DHT22;1158;48.750;9.078;2023-02-07T15:54:36;5.50;76.60
2300;DHT22;1158;48.750;9.078;2023-02-07T15:57:03;4.70;80.00
2300;DHT22;1158;48.750;9.078;2023-02-07T15:59:33;4.50;81.40
2300;DHT22;1158;48.750;9.078;2023-02-07T16:02:03;4.50;81.40
2300;DHT22;1158;48.750;9.078;2023-02-07T16:04:31;4.30;82.20
2300;DHT22;1158;48.750;9.078;2023-02-07T16:07:04;4.40;82.50
2300;DHT22;1158;48.750;9.078;2023-02-07T16:09:38;4.70;81.80
2300;DHT22;1158;48.750;9.078;2023-02-07T16:12:32;4.30;81.80
2300;DHT22;1158;48.750;9.078;2023-02-07T16:15:00;3.80;83.30
2300;DHT22;1158;48.750;9.078;2023-02-07T16:17:38;3.30;84.70
2300;DHT22;1158;48.750;9.078;2023-02-07T16:20:08;3.00;85.90
2300;DHT22;1158;48.750;9.078;2023-02-07T16:22:34;3.50;99.10
2300;DHT22;1158;48.750;9.078;2023-02-07T16:25:01;3.90;90.30
2300;DHT22;1158;48.750;9.078;2023-02-07T16:27:29;3.40;88.10
2300;DHT22;1158;48.750;9.078;2023-02-07T16:29:59;2.90;88.80
2300;DHT22;1158;48.750;9.078;2023-02-07T16:32:30;2.50;89.60
2300;DHT22;1158;48.750;9.078;2023-02-07T16:34:59;2.20;90.10
2300;DHT22;1158;48.750;9.078;2023-02-07T16:37:25;1.90;90.50
2300;DHT22;1158;48.750;9.078;2023-02-07T16:39:52;1.70;91.10
2300;DHT22;1158;48.750;9.078;2023-02-07T16:42:19;1.50;91.20
2300;DHT22;1158;48.750;9.078;2023-02-07T16:44:46;1.30;91.20